Saint Vincent, MN (56755)

9:38 PM CDT on July 23, 2014 (GMT -0500)
Hallock Municipal (KHCO) Elev 820 ft | 48.75 °N, 96.94 °W | Change Station

Current weather conditions updated 4 minutes ago

Clear
Clear
66 °F
Feels Like 66 °F
N
0
Wind Variable Wind from North

Tomorrow is forecast to be Warmer than today. Chance of late night showers tomorrow night.

Today
High -- | Low -- °F
--% Chance of Precip.
Yesterday
High -- | Low -- °F
Precip. -- in
5:50 AM 9:19 PM
Waning Crescent, 7% visible
Pressure 30.18 in
Visibility 10.0 miles
Clouds Clear
Dew Point 59 °F
Humidity 78%
Rainfall 0.00 in
Snow Depth Not available.
UV 0 out of 12
Pollen 7.00 out of 12
Air Quality Not available.
Flu Activity Not available.
METAR KHCO 240234Z AUTO 00000KT 10SM CLR 19/15 A3018 RMK AO2

More Conditions Fewer Conditions

Pressure 30.18 in
Visibility 10.0 miles
Clouds Clear
Dew Point 59 °F
Humidity 78%
Rainfall 0.00 in
Snow Depth Not available.
UV 0 out of 12
Pollen 7.00 out of 12
Air Quality Not available.
Flu Activity Not available.
METAR KHCO 240234Z AUTO 00000KT 10SM CLR 19/15 A3018 RMK AO2

More Conditions Fewer Conditions

10-Day Weather Forecast

Almanac

Astronomy

Jul. 23, 2014 Rise Set
Actual Time 5:50 AM CDT 9:19 PM CDT
Civil Twilight 5:11 AM CDT 9:58 PM CDT
Nautical Twilight 4:18 AM CDT 10:50 PM CDT
Astronomical Twilight 3:07 AM CDT 12:00 AM CDT
Moon 3:12 AM CDT (7/23) 6:47 PM CDT (7/23)
Length of Visible Light 16h 47m
Length of Day
15h 29m
Tomorrow will be 2m 26s shorter.
Waning Crescent, 7% of the Moon is Illuminated
Today
Waning Crescent
Jul 26
New
Aug 3
First Quarter
Aug 10
Full
Aug 17
Last Quarter

Today's Extremes

State Highs State Lows

Community

WunderPhotos

Upload Photos

1,736,863 photos uploaded!

Nearby

Snow Depth

Station Depth Elevation
No new snow has been reported.

Earthquake Activity

City Distance Mag. Time & Date
No recent earthquake activity has been reported nearby.
Minimum magnitude displayed is 2.5.

Coastal Water Temperatures

Place Temperature
No Stations Reporting

Nearby Weather Stations

Station Location Temp. Dew Point Humidity Wind Precip. Elev Updated Type
St Jean Baptiste MB, Saint Jean Baptiste 66.6 °F 56 °F 68% East  at  0.0 mph - / hr 771 ft 9:27 PM CDT Normal

Show More Stations Show Fewer Stations